Time;durP1;ratioP1;P1;durP2;ratioP2;P2;SDS_P1;SDS_P2;PMS_P1;PMS_P2;Temp;Humidity;BMP_temperature;BMP_pressure;BME280_temperature;BME280_humidity;BME280_pressure;Samples;Min_cycle;Max_cycle;Signal;HPM_P1;HPM_P2
2023/12/21 00:00:50;;;;;;;16.08;4.22;;;10.10;99.90;;;;;;5063084;28;20661;-82
2023/12/21 00:03:17;;;;;;;16.67;4.60;;;10.00;99.90;;;;;;5074812;28;20032;-83
2023/12/21 00:05:43;;;;;;;17.80;3.80;;;10.20;99.90;;;;;;5075565;28;20043;-82
2023/12/21 00:08:09;;;;;;;22.58;4.60;;;10.20;99.90;;;;;;5062358;28;20120;-83
2023/12/21 00:10:37;;;;;;;19.73;3.83;;;10.10;99.90;;;;;;5062433;28;20043;-82
2023/12/21 00:13:06;;;;;;;16.48;4.35;;;10.00;99.90;;;;;;5073879;28;20319;-82
2023/12/21 00:15:31;;;;;;;19.98;4.28;;;10.10;99.90;;;;;;5060883;28;20036;-82
2023/12/21 00:17:57;;;;;;;14.65;3.40;;;10.20;99.90;;;;;;5061839;28;20386;-82
2023/12/21 00:20:23;;;;;;;15.07;3.65;;;10.10;99.90;;;;;;5056964;28;20493;-82
2023/12/21 00:22:49;;;;;;;19.52;4.38;;;10.10;99.90;;;;;;5058652;28;20047;-82
2023/12/21 00:25:17;;;;;;;24.23;4.60;;;10.10;99.90;;;;;;5062719;28;20394;-82
2023/12/21 00:27:43;;;;;;;15.82;4.18;;;10.10;99.90;;;;;;5060686;28;20070;-82
2023/12/21 00:30:09;;;;;;;21.30;3.92;;;10.00;99.90;;;;;;5061390;28;20172;-89
2023/12/21 00:32:35;;;;;;;17.95;3.80;;;10.00;99.90;;;;;;5062013;28;20043;-89
2023/12/21 00:35:00;;;;;;;18.05;3.70;;;9.90;99.90;;;;;;5081971;28;20038;-89
2023/12/21 00:37:26;;;;;;;20.63;3.85;;;10.00;99.90;;;;;;5061949;28;20263;-89
2023/12/21 00:39:52;;;;;;;15.95;3.58;;;10.10;99.90;;;;;;5057103;28;20043;-89
2023/12/21 00:42:17;;;;;;;16.75;4.38;;;10.10;99.90;;;;;;5063264;28;20465;-89
2023/12/21 00:44:43;;;;;;;17.98;4.97;;;10.10;99.90;;;;;;5060352;28;20036;-90
2023/12/21 00:47:09;;;;;;;14.60;3.83;;;10.10;99.90;;;;;;5077967;28;20032;-89
2023/12/21 00:49:35;;;;;;;12.38;3.45;;;10.00;99.90;;;;;;5063256;28;20522;-89
2023/12/21 00:52:00;;;;;;;15.95;4.43;;;10.10;99.90;;;;;;5081434;28;20032;-88
2023/12/21 00:54:26;;;;;;;14.27;3.80;;;9.90;99.90;;;;;;5070659;28;20200;-89
2023/12/21 00:56:52;;;;;;;17.45;3.90;;;9.80;99.90;;;;;;5065902;28;20147;-89
2023/12/21 00:59:17;;;;;;;15.77;3.55;;;10.00;99.90;;;;;;5078789;28;19930;-89
2023/12/21 01:01:43;;;;;;;21.95;4.18;;;9.90;99.90;;;;;;5079708;28;20234;-88
2023/12/21 01:04:09;;;;;;;21.10;4.18;;;9.80;99.90;;;;;;5064027;28;20059;-89
2023/12/21 01:06:36;;;;;;;19.08;4.30;;;10.00;99.90;;;;;;5064578;28;20066;-89
2023/12/21 01:09:03;;;;;;;18.42;4.18;;;10.00;99.90;;;;;;5062178;28;20046;-88
2023/12/21 01:11:29;;;;;;;16.92;3.83;;;9.90;99.90;;;;;;5059401;28;20040;-88
2023/12/21 01:13:55;;;;;;;16.48;4.22;;;10.00;99.90;;;;;;5051357;28;20495;-88
2023/12/21 01:16:21;;;;;;;13.45;3.67;;;9.90;99.90;;;;;;5071212;28;20024;-90
2023/12/21 01:18:47;;;;;;;20.50;4.18;;;9.90;99.90;;;;;;5076240;28;20051;-89
2023/12/21 01:21:13;;;;;;;13.27;3.05;;;9.90;99.90;;;;;;5064963;28;20035;-89
2023/12/21 01:23:39;;;;;;;18.30;4.28;;;9.80;99.90;;;;;;5063017;28;20199;-90
2023/12/21 01:26:04;;;;;;;16.65;4.13;;;10.10;99.90;;;;;;5082722;28;20179;-89
2023/12/21 01:28:30;;;;;;;16.77;3.70;;;9.90;99.90;;;;;;5061364;28;20139;-90
2023/12/21 01:30:56;;;;;;;16.73;4.03;;;9.90;99.90;;;;;;5061368;28;20035;-89
2023/12/21 01:33:21;;;;;;;12.68;3.63;;;10.00;99.90;;;;;;5060439;28;20040;-90
2023/12/21 01:35:47;;;;;;;14.93;4.18;;;10.00;99.90;;;;;;5070147;28;20039;-89
2023/12/21 01:38:13;;;;;;;19.50;4.22;;;9.90;99.90;;;;;;5059538;28;20052;-89
2023/12/21 01:40:39;;;;;;;17.70;3.65;;;10.00;99.90;;;;;;5059956;28;20065;-89
2023/12/21 01:43:05;;;;;;;14.45;3.97;;;10.00;99.90;;;;;;5063822;28;20487;-90
2023/12/21 01:45:30;;;;;;;17.20;4.47;;;9.90;99.90;;;;;;5061313;28;20167;-88
2023/12/21 01:47:56;;;;;;;15.90;4.43;;;10.10;99.90;;;;;;5065853;28;20119;-90
2023/12/21 01:50:22;;;;;;;14.93;4.07;;;10.10;99.90;;;;;;5079211;28;20071;-89
2023/12/21 01:52:48;;;;;;;16.70;4.68;;;10.10;99.90;;;;;;5064340;28;20043;-89
2023/12/21 01:55:15;;;;;;;16.80;4.43;;;10.00;99.90;;;;;;5064473;28;20043;-89
2023/12/21 01:57:43;;;;;;;16.50;4.47;;;10.10;99.90;;;;;;5064511;28;20537;-90
2023/12/21 02:00:10;;;;;;;11.23;4.15;;;10.10;99.90;;;;;;5077300;28;20517;-89
2023/12/21 02:02:35;;;;;;;12.65;4.45;;;10.00;99.90;;;;;;5061884;28;20051;-89
2023/12/21 02:05:01;;;;;;;16.67;4.32;;;10.10;99.90;;;;;;5066234;28;20498;-91
2023/12/21 02:07:27;;;;;;;16.42;4.68;;;10.00;99.90;;;;;;5076450;28;20043;-90
2023/12/21 02:09:52;;;;;;;13.35;4.07;;;10.00;99.90;;;;;;5075077;28;20036;-90
2023/12/21 02:12:18;;;;;;;17.98;4.28;;;10.10;99.90;;;;;;5070322;28;20923;-88
2023/12/21 02:14:44;;;;;;;14.02;4.93;;;10.00;99.90;;;;;;5061218;28;20043;-90
2023/12/21 02:17:15;;;;;;;14.55;4.32;;;10.10;99.90;;;;;;5078730;28;20075;-89
2023/12/21 02:19:41;;;;;;;13.73;4.03;;;10.00;99.90;;;;;;5060560;28;20062;-89
2023/12/21 02:22:09;;;;;;;19.88;5.15;;;10.00;99.90;;;;;;5062304;28;20039;-89
2023/12/21 02:24:35;;;;;;;16.50;4.32;;;10.00;99.90;;;;;;5059539;28;20535;-89
2023/12/21 02:27:01;;;;;;;19.63;4.57;;;9.90;99.90;;;;;;5078603;28;20038;-89
2023/12/21 02:29:26;;;;;;;16.83;4.00;;;9.90;99.90;;;;;;5075405;28;20301;-89
2023/12/21 02:31:52;;;;;;;15.25;4.50;;;10.10;99.90;;;;;;5061407;28;20047;-89
2023/12/21 02:34:18;;;;;;;10.50;4.00;;;10.00;99.90;;;;;;5058772;28;20031;-88
2023/12/21 02:36:44;;;;;;;18.23;5.15;;;10.00;99.90;;;;;;5056002;28;20036;-89
2023/12/21 02:39:09;;;;;;;14.95;4.35;;;10.00;99.90;;;;;;5062609;28;20144;-88
2023/12/21 02:41:35;;;;;;;11.35;4.32;;;10.10;99.90;;;;;;5059406;28;20655;-88
2023/12/21 02:44:01;;;;;;;17.73;4.07;;;9.90;99.90;;;;;;5059951;28;20714;-89
2023/12/21 02:46:27;;;;;;;15.57;3.70;;;10.00;99.90;;;;;;5080679;28;20043;-89
2023/12/21 02:48:53;;;;;;;16.33;4.35;;;10.10;99.90;;;;;;5055908;28;20043;-90
2023/12/21 02:51:19;;;;;;;15.55;3.88;;;10.00;99.90;;;;;;5078961;28;20066;-90
2023/12/21 02:53:44;;;;;;;16.48;4.55;;;10.00;99.90;;;;;;5060402;28;20102;-91
2023/12/21 02:56:10;;;;;;;15.30;3.92;;;9.90;99.90;;;;;;5063927;28;20039;-89
2023/12/21 02:58:36;;;;;;;21.02;5.05;;;10.10;99.90;;;;;;5066337;28;20050;-90
2023/12/21 03:01:02;;;;;;;16.27;4.47;;;10.00;99.90;;;;;;5065717;28;20084;-90
2023/12/21 03:03:28;;;;;;;16.05;4.40;;;10.00;99.90;;;;;;5065561;28;20088;-89
2023/12/21 03:05:54;;;;;;;19.55;4.85;;;10.10;99.90;;;;;;5083782;28;20039;-90
2023/12/21 03:08:20;;;;;;;16.45;4.30;;;9.90;99.90;;;;;;5065374;28;20137;-89
2023/12/21 03:10:45;;;;;;;19.02;4.90;;;9.90;99.90;;;;;;5059973;28;20039;-89
2023/12/21 03:13:11;;;;;;;10.32;3.80;;;10.00;99.90;;;;;;5081118;28;20047;-89
2023/12/21 03:15:37;;;;;;;16.42;3.95;;;10.10;99.90;;;;;;5063679;28;20044;-89
2023/12/21 03:18:03;;;;;;;9.70;3.28;;;10.00;99.90;;;;;;5065196;28;20118;-89
2023/12/21 03:20:29;;;;;;;11.88;3.63;;;10.10;99.90;;;;;;5063951;28;20165;-89
2023/12/21 03:22:55;;;;;;;11.38;3.80;;;9.90;99.90;;;;;;5061959;28;20554;-89
2023/12/21 03:25:20;;;;;;;14.05;3.88;;;10.10;99.90;;;;;;5077652;28;20043;-88
2023/12/21 03:27:47;;;;;;;13.55;3.45;;;9.90;99.90;;;;;;5064357;28;20044;-86
2023/12/21 03:30:13;;;;;;;16.83;3.75;;;9.90;99.90;;;;;;5055380;28;20048;-89
2023/12/21 03:32:39;;;;;;;9.10;3.72;;;10.00;99.90;;;;;;5083027;28;20042;-90
2023/12/21 03:35:07;;;;;;;8.32;3.17;;;9.90;99.90;;;;;;5080192;28;20036;-89
2023/12/21 03:37:33;;;;;;;11.60;3.35;;;9.90;99.90;;;;;;5064660;28;20407;-90
2023/12/21 03:39:59;;;;;;;11.90;3.03;;;10.10;99.90;;;;;;5059507;28;20066;-89
2023/12/21 03:42:24;;;;;;;12.35;3.70;;;10.10;99.90;;;;;;5059144;28;20108;-89
2023/12/21 03:44:50;;;;;;;12.63;4.60;;;9.90;99.90;;;;;;5054080;28;20036;-90
2023/12/21 03:47:16;;;;;;;11.75;3.22;;;10.10;99.90;;;;;;5066241;28;20046;-88
2023/12/21 03:49:42;;;;;;;11.02;3.60;;;10.00;99.90;;;;;;5079415;28;20089;-89
2023/12/21 03:52:08;;;;;;;13.45;3.72;;;10.00;99.90;;;;;;5060072;28;20486;-89
2023/12/21 03:54:33;;;;;;;9.88;3.13;;;9.90;99.90;;;;;;5062115;28;20043;-90
2023/12/21 03:56:59;;;;;;;10.00;3.85;;;10.10;99.90;;;;;;5063177;28;20097;-90
2023/12/21 03:59:25;;;;;;;8.18;3.65;;;10.10;99.90;;;;;;5060855;28;20079;-89
2023/12/21 04:01:55;;;;;;;9.55;3.85;;;9.90;99.90;;;;;;5079285;28;20600;-90
2023/12/21 04:04:21;;;;;;;14.88;3.80;;;10.10;99.90;;;;;;5061543;28;20040;-89
2023/12/21 04:06:46;;;;;;;14.98;3.85;;;10.00;99.90;;;;;;5062879;28;20032;-89
2023/12/21 04:09:12;;;;;;;11.38;3.50;;;9.90;99.90;;;;;;5083177;28;20186;-89
2023/12/21 04:11:38;;;;;;;13.00;3.80;;;9.90;99.90;;;;;;5064472;28;20072;-87
2023/12/21 04:14:04;;;;;;;11.35;3.10;;;10.10;99.90;;;;;;5080196;28;20035;-82
2023/12/21 04:16:29;;;;;;;12.88;3.30;;;10.00;99.90;;;;;;5060202;28;20039;-84
2023/12/21 04:18:55;;;;;;;13.07;3.20;;;10.10;99.90;;;;;;5057736;28;20048;-83
2023/12/21 04:21:21;;;;;;;10.70;3.53;;;10.10;99.90;;;;;;5061064;28;20787;-82
2023/12/21 04:23:47;;;;;;;8.15;3.03;;;9.90;99.90;;;;;;5072921;28;20047;-82
2023/12/21 04:26:20;;;;;;;11.82;3.55;;;10.10;99.90;;;;;;5057225;28;20131;-83
2023/12/21 04:28:47;;;;;;;8.82;3.50;;;10.10;99.90;;;;;;5059906;28;20487;-82
2023/12/21 04:31:18;;;;;;;9.82;2.90;;;10.00;99.90;;;;;;5078759;28;20050;-83
2023/12/21 04:33:45;;;;;;;9.10;2.83;;;10.10;99.90;;;;;;5061633;28;20044;-83
2023/12/21 04:36:11;;;;;;;9.63;3.35;;;9.90;99.90;;;;;;5072486;28;20128;-82
2023/12/21 04:38:38;;;;;;;9.82;3.45;;;10.10;99.90;;;;;;5060210;28;20130;-82
2023/12/21 04:41:03;;;;;;;8.77;3.35;;;9.90;99.90;;;;;;5061433;28;20834;-82
2023/12/21 04:43:29;;;;;;;8.77;3.38;;;10.00;99.90;;;;;;5058388;28;20052;-83
2023/12/21 04:45:55;;;;;;;6.93;2.70;;;10.10;99.90;;;;;;5073787;28;21144;-82
2023/12/21 04:48:20;;;;;;;11.55;3.47;;;10.10;99.90;;;;;;5062479;28;20083;-83
2023/12/21 04:50:46;;;;;;;10.35;3.50;;;9.90;99.90;;;;;;5072576;28;20483;-82
2023/12/21 04:53:13;;;;;;;14.43;3.17;;;10.10;99.90;;;;;;5061856;28;20217;-90
2023/12/21 04:55:38;;;;;;;11.25;3.50;;;10.10;99.90;;;;;;5079814;28;20534;-89
2023/12/21 04:58:04;;;;;;;8.75;3.47;;;10.10;99.90;;;;;;5080134;28;20044;-90
2023/12/21 05:00:30;;;;;;;12.27;3.63;;;10.10;99.90;;;;;;5062514;28;20141;-90
2023/12/21 05:02:56;;;;;;;9.80;3.45;;;9.90;99.90;;;;;;5063489;28;20350;-91
2023/12/21 05:05:21;;;;;;;11.45;3.22;;;10.10;99.90;;;;;;5076273;28;20027;-90
2023/12/21 05:07:48;;;;;;;15.27;4.53;;;10.00;99.90;;;;;;5063605;28;20112;-89
2023/12/21 05:10:13;;;;;;;12.98;3.95;;;10.10;99.90;;;;;;5061258;28;20487;-88
2023/12/21 05:12:39;;;;;;;12.45;3.47;;;10.10;99.90;;;;;;5078291;28;20055;-90
2023/12/21 05:15:05;;;;;;;17.35;3.97;;;10.00;99.90;;;;;;5055126;28;20164;-90
2023/12/21 05:17:31;;;;;;;8.48;3.40;;;10.20;99.90;;;;;;5080735;28;20035;-90
2023/12/21 05:19:57;;;;;;;11.68;3.30;;;9.90;99.90;;;;;;5062344;28;20051;-90
2023/12/21 05:22:22;;;;;;;12.07;3.35;;;10.00;99.90;;;;;;5080016;28;20180;-90
2023/12/21 05:24:48;;;;;;;10.23;3.60;;;10.20;99.90;;;;;;5062725;28;20304;-89
2023/12/21 05:27:14;;;;;;;14.45;3.90;;;10.10;99.90;;;;;;5062454;28;20104;-88
2023/12/21 05:29:43;;;;;;;15.07;3.42;;;10.00;99.90;;;;;;5058614;28;20028;-90
2023/12/21 05:32:09;;;;;;;12.85;3.55;;;10.10;99.90;;;;;;5057750;28;20036;-88
2023/12/21 05:34:35;;;;;;;13.52;3.53;;;10.00;99.90;;;;;;5078655;28;20043;-90
2023/12/21 05:37:01;;;;;;;13.85;3.78;;;9.90;99.90;;;;;;5061839;28;20039;-89
2023/12/21 05:39:27;;;;;;;12.43;4.13;;;10.10;99.90;;;;;;5061042;28;20051;-89
2023/12/21 05:41:53;;;;;;;15.85;3.35;;;10.10;99.90;;;;;;5059294;28;20043;-89
2023/12/21 05:44:19;;;;;;;12.10;3.25;;;9.90;99.90;;;;;;5060213;28;20686;-89
2023/12/21 05:46:45;;;;;;;16.33;3.70;;;10.00;99.90;;;;;;5064455;28;20039;-89
2023/12/21 05:49:11;;;;;;;11.10;2.97;;;10.00;99.90;;;;;;5064022;28;20035;-89
2023/12/21 05:51:37;;;;;;;13.23;3.50;;;10.10;99.90;;;;;;5076739;28;20094;-90
2023/12/21 05:54:03;;;;;;;14.18;3.67;;;10.00;99.90;;;;;;5061508;28;20055;-90
2023/12/21 05:56:30;;;;;;;9.48;3.50;;;10.10;99.90;;;;;;5057850;28;20284;-90
2023/12/21 05:58:55;;;;;;;10.48;3.15;;;10.00;99.90;;;;;;5051833;28;20611;-88
2023/12/21 06:01:21;;;;;;;15.20;3.40;;;10.10;99.90;;;;;;5056155;28;21120;-90
2023/12/21 06:03:47;;;;;;;14.60;4.00;;;10.00;99.90;;;;;;5060975;28;20642;-90
2023/12/21 06:06:15;;;;;;;7.07;2.47;;;10.00;99.90;;;;;;5062895;28;20051;-89
2023/12/21 06:08:41;;;;;;;9.50;2.80;;;10.00;99.90;;;;;;5089305;28;20040;-89
2023/12/21 06:11:07;;;;;;;9.48;3.00;;;10.00;99.90;;;;;;5062141;28;20352;-89
2023/12/21 06:13:35;;;;;;;12.57;3.25;;;10.20;99.90;;;;;;5060668;28;20123;-89
2023/12/21 06:16:01;;;;;;;13.68;3.22;;;10.10;99.90;;;;;;5058994;28;20100;-89
2023/12/21 06:18:27;;;;;;;15.10;3.47;;;10.10;99.90;;;;;;5058833;28;20060;-89
2023/12/21 06:20:52;;;;;;;8.95;3.03;;;10.00;99.90;;;;;;5060081;28;20479;-91
2023/12/21 06:23:18;;;;;;;10.38;2.95;;;10.00;99.90;;;;;;5063542;28;20499;-89
2023/12/21 06:25:45;;;;;;;8.60;2.92;;;10.00;99.90;;;;;;5074602;28;20043;-90
2023/12/21 06:28:10;;;;;;;10.40;2.80;;;10.20;99.90;;;;;;5057354;28;20035;-89
2023/12/21 06:30:36;;;;;;;11.77;3.35;;;10.20;99.90;;;;;;5058853;28;20508;-88
2023/12/21 06:33:02;;;;;;;11.00;2.90;;;10.20;99.90;;;;;;5061269;28;20126;-88
2023/12/21 06:35:28;;;;;;;11.93;3.22;;;10.00;99.90;;;;;;5060064;28;20146;-88
2023/12/21 06:37:54;;;;;;;10.07;2.50;;;10.20;99.90;;;;;;5055773;28;20155;-90
2023/12/21 06:40:23;;;;;;;10.35;3.15;;;10.20;99.90;;;;;;5079271;28;20085;-89
2023/12/21 06:42:48;;;;;;;13.38;3.22;;;10.00;99.90;;;;;;5055377;28;20124;-88
2023/12/21 06:45:14;;;;;;;8.77;2.53;;;10.10;99.90;;;;;;5056515;28;20043;-91
2023/12/21 06:47:40;;;;;;;7.63;2.63;;;10.10;99.90;;;;;;5069261;28;20085;-90
2023/12/21 06:50:06;;;;;;;10.13;2.28;;;10.10;99.90;;;;;;5069108;28;20498;-90
2023/12/21 06:52:32;;;;;;;8.60;2.38;;;10.00;99.90;;;;;;5068249;28;20057;-89
2023/12/21 06:54:58;;;;;;;5.68;2.20;;;10.20;99.90;;;;;;5061940;28;20512;-89
2023/12/21 06:57:23;;;;;;;8.40;2.72;;;10.00;99.90;;;;;;5071776;28;20039;-88
2023/12/21 06:59:49;;;;;;;6.32;2.08;;;10.00;99.90;;;;;;5059991;28;20055;-90
2023/12/21 07:02:15;;;;;;;4.65;1.80;;;10.10;99.90;;;;;;5058445;28;20290;-89
2023/12/21 07:04:41;;;;;;;4.82;1.77;;;10.10;99.90;;;;;;5061429;28;20261;-90
2023/12/21 07:07:07;;;;;;;5.32;1.70;;;10.10;99.90;;;;;;5058398;28;20032;-90
2023/12/21 07:09:33;;;;;;;8.50;1.80;;;10.00;99.90;;;;;;5059012;28;20503;-89
2023/12/21 07:12:00;;;;;;;5.50;1.80;;;10.10;99.90;;;;;;5061374;28;20074;-89
2023/12/21 07:14:26;;;;;;;6.30;1.58;;;10.10;99.90;;;;;;5056520;28;20071;-90
2023/12/21 07:16:52;;;;;;;6.30;1.90;;;10.00;99.90;;;;;;5072120;28;20082;-90
2023/12/21 07:19:17;;;;;;;6.47;1.88;;;10.10;99.90;;;;;;5057072;28;20510;-90
2023/12/21 07:21:43;;;;;;;6.90;2.03;;;10.10;99.90;;;;;;5057624;28;20058;-89
2023/12/21 07:24:09;;;;;;;5.70;2.17;;;10.10;99.90;;;;;;5072791;28;20051;-90
2023/12/21 07:26:35;;;;;;;4.57;1.58;;;10.10;99.90;;;;;;5074414;28;20325;-89
2023/12/21 07:29:01;;;;;;;8.15;1.67;;;10.10;99.90;;;;;;5072505;28;20383;-89
2023/12/21 07:31:26;;;;;;;6.15;1.80;;;10.10;99.90;;;;;;5058439;28;20043;-89
2023/12/21 07:33:52;;;;;;;4.35;1.40;;;10.20;99.90;;;;;;5061223;28;20039;-90
2023/12/21 07:36:18;;;;;;;2.83;1.35;;;10.20;99.90;;;;;;5056911;28;20079;-89
2023/12/21 07:38:44;;;;;;;5.95;1.65;;;10.30;99.90;;;;;;5086147;28;20047;-90
2023/12/21 07:41:13;;;;;;;8.77;2.00;;;10.20;99.90;;;;;;5057106;28;20485;-88
2023/12/21 07:43:41;;;;;;;4.38;1.48;;;10.20;99.90;;;;;;5054362;28;20724;-91
2023/12/21 07:46:08;;;;;;;4.72;1.50;;;10.20;99.90;;;;;;5078925;28;20514;-90
2023/12/21 07:48:34;;;;;;;3.60;1.70;;;10.30;99.90;;;;;;5080381;28;20139;-89
2023/12/21 07:50:59;;;;;;;7.50;1.40;;;10.10;99.90;;;;;;5061318;28;20092;-89
2023/12/21 07:53:25;;;;;;;4.93;1.83;;;10.20;99.90;;;;;;5065256;28;20044;-89
2023/12/21 07:55:51;;;;;;;8.65;2.10;;;10.20;99.90;;;;;;5064938;28;20283;-90
2023/12/21 07:58:16;;;;;;;4.80;1.73;;;10.30;99.90;;;;;;5076498;28;20124;-90
2023/12/21 08:00:42;;;;;;;5.57;1.75;;;10.30;99.90;;;;;;5072904;28;20122;-89
2023/12/21 08:03:08;;;;;;;3.65;1.73;;;10.30;99.90;;;;;;5065216;28;20047;-90
2023/12/21 08:05:34;;;;;;;8.05;1.83;;;10.20;99.90;;;;;;5063093;28;20354;-90
2023/12/21 08:07:59;;;;;;;5.03;1.60;;;10.30;99.90;;;;;;5079165;28;20054;-91
2023/12/21 08:10:25;;;;;;;6.60;2.08;;;10.10;99.90;;;;;;5076494;28;20057;-89
2023/12/21 08:12:50;;;;;;;8.30;1.65;;;10.30;99.90;;;;;;5081997;28;20043;-88
2023/12/21 08:15:16;;;;;;;4.60;1.70;;;10.30;99.90;;;;;;5064558;28;20756;-89
2023/12/21 08:17:47;;;;;;;4.15;1.30;;;10.30;99.90;;;;;;5056279;28;20032;-89
2023/12/21 08:20:12;;;;;;;3.80;1.40;;;10.30;99.90;;;;;;5079621;28;20056;-90
2023/12/21 08:22:38;;;;;;;5.20;1.40;;;10.30;99.90;;;;;;5077073;28;20030;-90
2023/12/21 08:25:04;;;;;;;3.78;1.52;;;10.40;99.90;;;;;;5065176;28;20048;-89
2023/12/21 08:27:30;;;;;;;5.05;1.52;;;10.20;99.90;;;;;;5059448;28;20077;-90
2023/12/21 08:29:55;;;;;;;5.22;1.67;;;10.40;99.90;;;;;;5065259;28;20036;-88
2023/12/21 08:32:21;;;;;;;5.60;1.77;;;10.40;99.90;;;;;;5080500;28;20044;-91
2023/12/21 08:34:47;;;;;;;9.57;2.00;;;10.30;99.90;;;;;;5063013;28;20051;-89
2023/12/21 08:37:13;;;;;;;8.38;2.30;;;10.30;99.90;;;;;;5066181;28;21652;-89
2023/12/21 08:39:39;;;;;;;9.32;2.30;;;10.50;99.90;;;;;;5065324;28;20043;-89
2023/12/21 08:42:08;;;;;;;10.70;3.03;;;10.40;99.90;;;;;;5062304;28;20122;-90
2023/12/21 08:44:35;;;;;;;15.40;3.00;;;10.60;99.90;;;;;;5076989;28;20096;-89
2023/12/21 08:47:01;;;;;;;22.35;3.30;;;10.40;99.90;;;;;;5062505;28;20043;-83
2023/12/21 08:49:27;;;;;;;12.23;3.10;;;10.50;99.90;;;;;;5059200;28;20040;-82
2023/12/21 08:51:53;;;;;;;13.38;2.92;;;10.50;99.90;;;;;;5072514;28;20036;-82
2023/12/21 08:54:20;;;;;;;12.45;3.00;;;10.60;99.90;;;;;;5058231;28;20078;-83
2023/12/21 08:56:46;;;;;;;13.27;3.58;;;10.60;99.90;;;;;;5060254;28;20566;-83
2023/12/21 08:59:12;;;;;;;14.60;3.13;;;10.60;99.90;;;;;;5088513;28;21045;-90
2023/12/21 09:01:38;;;;;;;10.95;2.85;;;10.60;99.90;;;;;;5079175;28;20028;-90
2023/12/21 09:04:04;;;;;;;9.80;2.40;;;10.50;99.90;;;;;;5065009;28;20145;-91
2023/12/21 09:06:31;;;;;;;10.75;2.95;;;10.70;99.90;;;;;;5064164;28;20039;-90
2023/12/21 09:08:58;;;;;;;6.55;2.25;;;10.70;99.90;;;;;;5066354;28;20487;-90
2023/12/21 09:11:27;;;;;;;13.05;3.38;;;10.80;99.90;;;;;;5078776;28;20124;-90
2023/12/21 09:13:57;;;;;;;15.35;2.53;;;10.80;99.90;;;;;;5060571;28;20066;-89
2023/12/21 09:16:23;;;;;;;11.23;2.67;;;11.00;99.90;;;;;;5065574;28;20077;-90
2023/12/21 09:18:49;;;;;;;10.85;2.75;;;11.00;99.90;;;;;;5060778;28;20360;-90
2023/12/21 09:21:14;;;;;;;10.20;2.33;;;11.30;99.90;;;;;;5060944;28;20445;-91
2023/12/21 09:23:41;;;;;;;8.45;2.25;;;11.40;99.90;;;;;;5059430;28;20540;-91
2023/12/21 09:26:11;;;;;;;13.43;3.33;;;11.40;99.90;;;;;;5077746;28;20066;-91
2023/12/21 09:28:37;;;;;;;12.93;2.50;;;11.50;99.90;;;;;;5052784;28;20048;-90
2023/12/21 09:31:04;;;;;;;16.00;2.80;;;11.40;99.90;;;;;;5071733;28;20297;-90
2023/12/21 09:33:34;;;;;;;9.63;2.75;;;11.70;99.90;;;;;;5060130;28;20048;-90
2023/12/21 09:36:06;;;;;;;15.93;3.45;;;11.50;99.90;;;;;;5057163;28;20116;-89
2023/12/21 09:38:32;;;;;;;15.85;3.38;;;11.70;99.90;;;;;;5062254;28;20057;-90
2023/12/21 09:40:59;;;;;;;10.23;2.50;;;11.60;99.90;;;;;;5058075;28;20036;-90
2023/12/21 09:43:25;;;;;;;12.93;2.80;;;11.60;99.90;;;;;;5057851;28;20429;-90
2023/12/21 09:45:51;;;;;;;10.18;2.38;;;12.40;99.90;;;;;;5059233;28;20055;-90
2023/12/21 09:48:18;;;;;;;12.40;2.65;;;12.80;99.90;;;;;;5059905;28;20063;-88
2023/12/21 09:50:45;;;;;;;15.35;3.35;;;12.80;99.90;;;;;;5075209;28;20054;-89
2023/12/21 09:53:16;;;;;;;10.68;2.65;;;12.90;99.90;;;;;;5072201;28;20043;-84
2023/12/21 09:55:48;;;;;;;16.65;3.45;;;12.80;99.90;;;;;;5053788;28;20129;-82
2023/12/21 09:58:15;;;;;;;13.45;2.83;;;12.80;99.90;;;;;;5071671;28;20174;-83
2023/12/21 10:00:41;;;;;;;17.75;3.20;;;12.80;99.90;;;;;;5062140;28;20043;-83
2023/12/21 10:03:07;;;;;;;12.65;2.85;;;12.90;99.90;;;;;;5057420;28;20368;-82
2023/12/21 10:05:34;;;;;;;13.32;2.70;;;12.90;99.90;;;;;;5049917;28;20044;-89
2023/12/21 10:08:01;;;;;;;18.63;2.83;;;12.70;99.90;;;;;;5075755;28;20070;-90
2023/12/21 10:10:27;;;;;;;12.20;2.80;;;12.80;99.90;;;;;;5052698;28;20071;-87
2023/12/21 10:12:52;;;;;;;10.98;2.30;;;12.90;99.90;;;;;;5057628;28;20060;-89
2023/12/21 10:15:19;;;;;;;11.23;3.25;;;12.70;99.90;;;;;;5043632;28;20487;-89
2023/12/21 10:17:45;;;;;;;12.75;2.63;;;12.70;99.90;;;;;;5056070;28;20047;-89
2023/12/21 10:20:12;;;;;;;13.85;2.88;;;12.80;99.90;;;;;;5064190;28;20091;-91
2023/12/21 10:22:42;;;;;;;7.32;2.58;;;12.80;99.90;;;;;;5059826;28;20054;-90
2023/12/21 10:25:09;;;;;;;14.02;2.58;;;12.80;99.90;;;;;;5058664;28;20343;-89
2023/12/21 10:27:35;;;;;;;16.00;3.15;;;12.90;99.90;;;;;;5053419;28;20040;-89
2023/12/21 10:30:03;;;;;;;12.68;2.63;;;12.90;99.90;;;;;;5057228;28;20032;-88
2023/12/21 10:32:29;;;;;;;16.80;3.15;;;13.10;99.90;;;;;;5056501;28;20040;-89
2023/12/21 10:34:58;;;;;;;18.17;2.97;;;13.20;99.90;;;;;;5073670;28;20040;-88
2023/12/21 10:37:24;;;;;;;20.08;3.30;;;13.30;99.90;;;;;;5058180;28;20036;-89
2023/12/21 10:39:51;;;;;;;15.52;3.25;;;13.30;99.90;;;;;;5064981;28;20381;-90
2023/12/21 10:42:17;;;;;;;11.65;2.90;;;13.30;99.90;;;;;;5068837;28;20025;-88
2023/12/21 10:44:47;;;;;;;8.25;2.50;;;13.30;99.90;;;;;;5073692;28;20052;-90
2023/12/21 10:47:16;;;;;;;11.10;3.08;;;13.30;99.90;;;;;;5055711;28;20167;-88
2023/12/21 10:49:43;;;;;;;15.10;3.05;;;13.30;99.90;;;;;;5061792;28;20054;-89
2023/12/21 10:52:11;;;;;;;14.02;2.95;;;13.40;99.90;;;;;;5057227;28;20299;-89
2023/12/21 10:54:40;;;;;;;16.05;2.88;;;13.40;99.90;;;;;;5058602;28;20426;-89
2023/12/21 10:57:07;;;;;;;11.55;2.90;;;13.40;99.90;;;;;;5060283;28;20572;-88
2023/12/21 10:59:33;;;;;;;17.88;3.08;;;13.40;99.90;;;;;;5055818;28;20500;-88
2023/12/21 11:01:59;;;;;;;10.50;2.72;;;13.30;99.90;;;;;;5057832;28;20046;-89
2023/12/21 11:04:27;;;;;;;10.80;2.72;;;13.20;99.90;;;;;;5057760;28;20098;-89
2023/12/21 11:06:54;;;;;;;15.48;2.85;;;13.20;99.90;;;;;;5057363;28;20151;-89
2023/12/21 11:09:22;;;;;;;16.17;2.55;;;13.30;99.90;;;;;;5050383;28;20044;-89
2023/12/21 11:11:48;;;;;;;9.82;2.13;;;13.20;99.90;;;;;;5071880;28;20044;-89
2023/12/21 11:14:14;;;;;;;15.48;3.10;;;13.10;99.90;;;;;;5056061;28;20375;-89
2023/12/21 11:16:47;;;;;;;14.15;2.78;;;13.10;99.90;;;;;;5064125;28;20482;-88
2023/12/21 11:19:17;;;;;;;10.18;3.00;;;13.00;99.90;;;;;;5063209;28;20167;-89
2023/12/21 11:21:43;;;;;;;13.05;2.50;;;13.00;99.90;;;;;;5063578;28;20429;-88
2023/12/21 11:24:20;;;;;;;16.52;2.92;;;12.90;99.90;;;;;;5063369;28;20398;-89
2023/12/21 11:26:46;;;;;;;20.65;3.35;;;12.40;99.90;;;;;;5078447;28;20127;-89
2023/12/21 11:29:13;;;;;;;16.75;3.58;;;12.30;99.90;;;;;;5072620;28;20146;-88
2023/12/21 11:31:41;;;;;;;15.55;3.13;;;12.10;99.90;;;;;;5075665;28;20044;-89
2023/12/21 11:34:10;;;;;;;16.13;3.20;;;11.90;99.90;;;;;;5059685;28;20168;-89
2023/12/21 11:36:36;;;;;;;20.90;3.90;;;11.50;99.90;;;;;;5061476;28;20044;-88
2023/12/21 11:39:07;;;;;;;15.88;3.33;;;11.40;99.90;;;;;;5077668;28;20044;-88
2023/12/21 11:41:33;;;;;;;17.30;3.15;;;11.40;99.90;;;;;;5073458;28;20202;-88
2023/12/21 11:44:03;;;;;;;16.92;4.05;;;11.30;99.90;;;;;;5061271;28;20070;-88
2023/12/21 11:46:33;;;;;;;19.38;3.42;;;11.30;99.90;;;;;;5053339;28;21642;-89
2023/12/21 11:48:59;;;;;;;15.82;3.13;;;11.20;99.90;;;;;;5059454;28;20345;-88
2023/12/21 11:51:25;;;;;;;15.55;2.67;;;11.20;99.90;;;;;;5074404;28;20578;-89
2023/12/21 11:53:51;;;;;;;15.65;3.20;;;11.20;99.90;;;;;;5062758;28;20146;-89
2023/12/21 11:56:17;;;;;;;21.10;3.70;;;11.30;99.90;;;;;;5078871;28;20373;-88
2023/12/21 11:58:45;;;;;;;20.15;4.18;;;11.30;99.90;;;;;;5057486;28;20122;-89
2023/12/21 12:01:22;;;;;;;18.17;4.05;;;11.30;99.90;;;;;;5060977;28;20123;-90
2023/12/21 12:03:48;;;;;;;19.45;3.50;;;11.20;99.90;;;;;;5057199;28;20173;-87
2023/12/21 12:06:14;;;;;;;15.43;3.03;;;11.30;99.90;;;;;;5077842;28;20559;-87
2023/12/21 12:08:40;;;;;;;16.25;3.53;;;11.30;99.90;;;;;;5058695;28;20071;-88
2023/12/21 12:11:06;;;;;;;11.98;3.00;;;11.30;99.90;;;;;;5059887;28;20051;-88
2023/12/21 12:13:33;;;;;;;13.38;3.67;;;11.30;99.90;;;;;;5059081;28;20161;-87
2023/12/21 12:15:59;;;;;;;17.70;4.13;;;11.30;99.90;;;;;;5076539;28;20115;-87
2023/12/21 12:18:24;;;;;;;17.05;3.10;;;11.20;99.90;;;;;;5057683;28;20196;-86
2023/12/21 12:20:51;;;;;;;14.15;3.05;;;11.20;99.90;;;;;;5061010;28;20055;-88
2023/12/21 12:23:18;;;;;;;18.77;3.78;;;11.30;99.90;;;;;;5058586;28;20036;-88
2023/12/21 12:25:44;;;;;;;21.55;3.70;;;11.30;99.90;;;;;;5055088;28;20037;-89
2023/12/21 12:28:10;;;;;;;11.90;3.13;;;11.30;99.90;;;;;;5059479;28;20105;-89
2023/12/21 12:30:36;;;;;;;13.18;3.05;;;11.40;99.90;;;;;;5058759;28;20348;-88
2023/12/21 12:33:03;;;;;;;14.90;3.20;;;11.30;99.90;;;;;;5059344;28;20143;-88
2023/12/21 12:35:36;;;;;;;16.92;3.22;;;11.20;99.90;;;;;;5058497;28;20028;-88